Time;durP1;ratioP1;P1;durP2;ratioP2;P2;SDS_P1;SDS_P2;PMS_P1;PMS_P2;Temp;Humidity;BMP_temperature;BMP_pressure;BME280_temperature;BME280_humidity;BME280_pressure;Samples;Min_cycle;Max_cycle;Signal;HPM_P1;HPM_P2
2022/12/28 00:01:12;;;;;;;6.07;2.83;;;;;;;5.18;100.00;101563.59;5055541;28;20036;-72
2022/12/28 00:03:38;;;;;;;8.25;2.95;;;;;;;5.20;100.00;101572.22;5037579;28;20017;-72
2022/12/28 00:06:05;;;;;;;5.75;3.20;;;;;;;5.22;100.00;101572.09;5055658;28;20380;-72
2022/12/28 00:08:30;;;;;;;8.02;2.90;;;;;;;5.18;100.00;101562.75;5055647;28;20028;-72
2022/12/28 00:11:05;;;;;;;7.22;2.60;;;;;;;5.18;100.00;101553.00;5055564;28;20033;-72
2022/12/28 00:13:32;;;;;;;7.15;3.25;;;;;;;5.22;100.00;101556.22;5055275;28;20036;-74
2022/12/28 00:15:58;;;;;;;6.18;3.10;;;;;;;5.25;100.00;101540.88;5033949;28;20080;-72
2022/12/28 00:18:23;;;;;;;8.02;3.15;;;;;;;5.28;100.00;101545.06;5033705;28;20039;-72
2022/12/28 00:20:59;;;;;;;6.93;3.10;;;;;;;5.25;100.00;101534.75;5051757;28;20378;-72
2022/12/28 00:23:25;;;;;;;5.45;3.08;;;;;;;5.30;100.00;101543.09;5017768;28;20037;-72
2022/12/28 00:25:51;;;;;;;6.35;3.00;;;;;;;5.23;100.00;101521.69;5033461;28;20353;-72
2022/12/28 00:28:17;;;;;;;5.88;3.30;;;;;;;5.32;100.00;101527.94;5051524;28;20033;-72
2022/12/28 00:30:42;;;;;;;9.45;3.20;;;;;;;5.32;100.00;101513.84;5033886;28;20021;-72
2022/12/28 00:33:08;;;;;;;5.57;3.08;;;;;;;5.27;100.00;101507.19;5017043;28;20487;-72
2022/12/28 00:35:33;;;;;;;6.40;3.00;;;;;;;5.26;100.00;101481.72;5051083;28;20392;-72
2022/12/28 00:37:58;;;;;;;6.57;3.35;;;;;;;5.32;100.00;101503.25;5016838;28;20041;-72
2022/12/28 00:40:24;;;;;;;5.25;2.90;;;;;;;5.28;100.00;101487.69;5050891;28;20423;-72
2022/12/28 00:42:49;;;;;;;11.25;3.45;;;;;;;5.30;100.00;101492.03;5032896;28;20037;-72
2022/12/28 00:45:14;;;;;;;4.28;2.53;;;;;;;5.23;100.00;101466.13;5051806;28;20120;-72
2022/12/28 00:47:40;;;;;;;6.20;3.45;;;;;;;5.28;100.00;101465.72;5001132;28;20056;-72
2022/12/28 00:50:06;;;;;;;7.68;3.47;;;;;;;5.27;100.00;101456.94;5051555;28;20513;-72
2022/12/28 00:52:31;;;;;;;8.65;3.28;;;;;;;5.32;100.00;101461.81;5033915;28;20087;-72
2022/12/28 00:54:56;;;;;;;5.28;3.30;;;;;;;5.37;100.00;101456.06;5051675;28;20447;-72
2022/12/28 00:57:22;;;;;;;5.20;2.80;;;;;;;5.39;100.00;101460.22;5033648;28;20059;-72
2022/12/28 00:59:47;;;;;;;7.75;3.28;;;;;;;5.41;100.00;101452.16;5051508;28;20108;-72
2022/12/28 01:02:12;;;;;;;5.97;3.08;;;;;;;5.49;100.00;101466.28;5033634;28;20033;-72
2022/12/28 01:04:38;;;;;;;5.78;3.05;;;;;;;5.50;100.00;101461.81;5016901;28;20033;-72
2022/12/28 01:07:03;;;;;;;5.03;3.35;;;;;;;5.52;100.00;101451.94;5033338;28;20059;-72
2022/12/28 01:09:28;;;;;;;7.07;2.75;;;;;;;5.51;100.00;101444.16;5051421;28;20060;-72
2022/12/28 01:11:54;;;;;;;7.80;3.20;;;;;;;5.58;100.00;101451.34;5016862;28;20029;-72
2022/12/28 01:14:19;;;;;;;8.45;3.25;;;;;;;5.57;100.00;101425.84;5016481;28;20547;-72
2022/12/28 01:16:44;;;;;;;7.53;3.30;;;;;;;5.55;100.00;101422.53;5050429;28;20044;-72
2022/12/28 01:19:13;;;;;;;6.93;3.53;;;;;;;5.69;100.00;101437.91;5032435;28;20091;-72
2022/12/28 01:21:39;;;;;;;7.72;3.15;;;;;;;5.69;100.00;101443.19;5032823;28;20041;-73
2022/12/28 01:24:06;;;;;;;7.53;3.58;;;;;;;5.68;100.00;101432.75;4999759;28;20103;-72
2022/12/28 01:26:32;;;;;;;7.35;4.07;;;;;;;5.66;100.00;101435.56;5032471;28;20549;-72
2022/12/28 01:28:58;;;;;;;7.97;3.90;;;;;;;5.66;100.00;101424.16;5032476;28;20075;-72
2022/12/28 01:31:23;;;;;;;7.55;3.20;;;;;;;5.66;100.00;101422.31;5032443;28;20127;-72
2022/12/28 01:33:48;;;;;;;8.70;2.97;;;;;;;5.72;100.00;101424.38;5032392;28;20619;-73
2022/12/28 01:36:20;;;;;;;5.78;3.20;;;;;;;5.75;100.00;101422.41;5032590;28;20032;-72
2022/12/28 01:38:46;;;;;;;11.18;3.40;;;;;;;5.77;100.00;101415.16;5050354;28;20068;-72
2022/12/28 01:41:16;;;;;;;9.00;3.78;;;;;;;5.77;100.00;101396.63;5050209;28;20032;-72
2022/12/28 01:44:06;;;;;;;5.82;2.75;;;;;;;5.81;100.00;101404.09;5032657;28;20025;-72
2022/12/28 01:46:43;;;;;;;8.77;3.80;;;;;;;5.82;100.00;101394.34;5012597;28;20040;-72
2022/12/28 01:49:39;;;;;;;11.32;3.50;;;;;;;5.86;100.00;101390.41;5032523;28;20079;-73
2022/12/28 01:52:06;;;;;;;9.45;3.90;;;;;;;5.91;100.00;101372.25;5032914;28;20266;-72
2022/12/28 01:54:47;;;;;;;9.27;4.57;;;;;;;5.91;100.00;101385.47;5032660;28;20056;-72
2022/12/28 01:57:14;;;;;;;6.57;2.97;;;;;;;5.89;100.00;101368.91;5050511;28;20039;-72
2022/12/28 01:59:44;;;;;;;6.70;2.85;;;;;;;5.90;100.00;101355.53;5032516;28;20029;-72
2022/12/28 02:02:12;;;;;;;8.85;4.15;;;;;;;5.96;100.00;101361.25;5050475;28;20116;-72
2022/12/28 02:04:37;;;;;;;5.70;2.97;;;;;;;5.98;100.00;101357.44;5050265;28;20391;-72
2022/12/28 02:07:03;;;;;;;12.45;3.10;;;;;;;6.02;100.00;101355.31;5032428;28;20033;-72
2022/12/28 02:09:39;;;;;;;4.03;2.80;;;;;;;6.05;100.00;101342.63;5015940;28;20032;-72
2022/12/28 02:12:07;;;;;;;8.40;3.25;;;;;;;6.06;100.00;101338.97;5050185;28;20031;-72
2022/12/28 02:14:33;;;;;;;10.80;3.60;;;;;;;6.10;100.00;101332.41;5032059;28;20025;-72
2022/12/28 02:16:58;;;;;;;10.55;3.55;;;;;;;6.12;100.00;101319.81;5049631;28;20033;-72
2022/12/28 02:19:41;;;;;;;8.82;3.28;;;;;;;6.18;100.00;101328.13;5049166;28;20079;-72
2022/12/28 02:22:18;;;;;;;6.00;3.03;;;;;;;6.16;100.00;101320.34;5048897;28;20030;-72
2022/12/28 02:25:13;;;;;;;8.38;3.72;;;;;;;6.13;100.00;101283.56;5049117;28;20033;-72
2022/12/28 02:28:15;;;;;;;5.93;2.90;;;;;;;6.19;100.00;101304.13;5010837;28;20028;-72
2022/12/28 02:30:51;;;;;;;;;;;;;;;6.25;100.00;101290.25;5049704;28;20028;-72
2022/12/28 02:33:24;;;;;;;6.80;2.75;;;;;;;6.23;100.00;101283.44;5031458;28;19912;-72
2022/12/28 02:35:58;;;;;;;7.63;3.38;;;;;;;6.26;100.00;101281.34;5031188;28;20025;-72
2022/12/28 02:38:36;;;;;;;7.20;2.53;;;;;;;6.34;100.00;101276.06;5048438;28;20040;-72
2022/12/28 02:41:06;;;;;;;6.03;3.67;;;;;;;6.36;100.00;101266.13;5049082;28;20056;-72
2022/12/28 02:43:33;;;;;;;6.10;3.15;;;;;;;6.43;100.00;101257.56;5049534;28;20052;-72
2022/12/28 02:51:36;;;;;;;4.97;3.13;;;;;;;6.50;100.00;101263.91;5049857;28;20051;-72
2022/12/28 02:57:13;;;;;;;;;;;;;;;6.44;100.00;101259.22;5049993;28;20044;-72
2022/12/28 02:59:59;;;;;;;7.28;3.10;;;;;;;6.37;100.00;101251.09;5049402;28;20306;-72
2022/12/28 03:02:40;;;;;;;4.47;2.65;;;;;;;6.31;100.00;101244.59;5049376;28;20021;-72
2022/12/28 03:08:13;;;;;;;12.05;3.58;;;;;;;6.26;100.00;101241.59;5031778;28;20041;-72
2022/12/28 03:08:19;;;;;;;7.07;3.85;;;;;;;6.25;100.00;101245.22;5049355;28;20064;-72
2022/12/28 03:10:48;;;;;;;5.88;3.47;;;;;;;6.18;100.00;101241.53;5049318;28;20029;-72
2022/12/28 03:13:42;;;;;;;6.60;3.13;;;;;;;6.13;100.00;101239.38;5048525;28;20071;-72
2022/12/28 03:16:21;;;;;;;8.13;3.60;;;;;;;6.14;100.00;101233.09;5049379;28;20486;-72
2022/12/28 03:32:50;;;;;;;;;;;;;;;6.19;100.00;101208.78;5049016;28;20194;-72
2022/12/28 03:35:18;;;;;;;7.32;3.83;;;;;;;6.14;100.00;101211.09;5030626;28;20450;-72
2022/12/28 03:37:59;;;;;;;8.13;4.28;;;;;;;6.09;100.00;101208.09;5048941;28;20021;-72
2022/12/28 03:40:46;;;;;;;7.30;3.55;;;;;;;6.11;100.00;101220.19;5030778;28;20017;-73
2022/12/28 03:46:13;;;;;;;8.77;4.28;;;;;;;6.12;100.00;101207.75;5048679;28;20556;-72
2022/12/28 03:48:40;;;;;;;7.55;4.22;;;;;;;6.12;100.00;101202.47;5030991;28;20060;-72
2022/12/28 03:51:06;;;;;;;9.02;4.60;;;;;;;6.12;100.00;101205.13;5051738;28;20361;-72
2022/12/28 03:53:40;;;;;;;8.68;4.45;;;;;;;6.07;100.00;101194.16;5018250;28;20029;-72
2022/12/28 03:56:23;;;;;;;6.25;4.25;;;;;;;6.12;100.00;101194.53;5034902;28;20040;-72
2022/12/28 03:58:49;;;;;;;6.80;4.45;;;;;;;6.15;100.00;101195.03;5052391;28;20025;-72
2022/12/28 04:01:14;;;;;;;8.85;4.50;;;;;;;6.17;100.00;101175.50;5052115;28;20503;-73
2022/12/28 04:03:41;;;;;;;9.25;4.35;;;;;;;6.21;100.00;101180.34;5034723;28;20506;-72
2022/12/28 04:06:07;;;;;;;8.77;4.03;;;;;;;6.26;100.00;101178.03;5052533;28;20032;-72
2022/12/28 04:08:33;;;;;;;8.02;4.80;;;;;;;6.29;100.00;101174.25;5052554;28;20021;-73
2022/12/28 04:11:00;;;;;;;9.02;4.28;;;;;;;6.29;100.00;101172.41;5052437;28;20062;-72
2022/12/28 04:13:29;;;;;;;9.35;4.40;;;;;;;6.34;100.00;101179.84;5017644;28;20021;-72
2022/12/28 04:15:56;;;;;;;6.30;4.03;;;;;;;6.39;100.00;101174.09;5023382;28;20029;-72
2022/12/28 04:18:21;;;;;;;8.23;3.83;;;;;;;6.45;100.00;101178.75;5031124;28;20072;-72
2022/12/28 04:20:47;;;;;;;6.70;4.47;;;;;;;6.43;100.00;101165.66;5032916;28;20035;-72
2022/12/28 04:23:12;;;;;;;9.85;4.13;;;;;;;6.49;100.00;101172.94;5043220;28;20127;-72
2022/12/28 04:25:37;;;;;;;9.35;4.43;;;;;;;6.46;100.00;101169.81;5051618;28;20060;-72
2022/12/28 04:28:03;;;;;;;6.38;3.38;;;;;;;6.48;100.00;101175.78;5033550;28;20051;-72
2022/12/28 04:30:28;;;;;;;7.75;4.03;;;;;;;6.52;100.00;101177.09;5033305;28;20040;-73
2022/12/28 04:32:54;;;;;;;10.20;4.25;;;;;;;6.44;100.00;101159.34;5033387;28;20544;-72
2022/12/28 04:35:20;;;;;;;8.13;3.50;;;;;;;6.59;100.00;101180.75;5033053;28;20506;-72
2022/12/28 04:37:45;;;;;;;9.15;4.15;;;;;;;6.61;100.00;101178.78;5051047;28;20029;-72
2022/12/28 04:40:11;;;;;;;6.43;4.05;;;;;;;6.64;100.00;101185.59;5032918;28;20037;-72
2022/12/28 04:42:36;;;;;;;8.00;3.85;;;;;;;6.64;100.00;101178.47;5051008;28;20115;-72
2022/12/28 04:45:02;;;;;;;9.38;5.35;;;;;;;6.68;100.00;101174.50;5051292;28;20036;-72
2022/12/28 04:47:27;;;;;;;10.77;4.75;;;;;;;6.64;100.00;101164.38;5050988;28;20086;-72
2022/12/28 04:49:53;;;;;;;9.75;3.63;;;;;;;6.67;100.00;101159.56;5033216;28;20053;-72
2022/12/28 04:52:18;;;;;;;8.82;3.78;;;;;;;6.66;100.00;101165.88;5051767;28;20522;-72
2022/12/28 04:54:43;;;;;;;7.38;3.63;;;;;;;6.66;100.00;101163.22;5051218;28;20060;-72
2022/12/28 04:57:09;;;;;;;7.95;3.85;;;;;;;6.61;100.00;101154.13;5050260;28;20487;-73
2022/12/28 04:59:34;;;;;;;8.52;3.67;;;;;;;6.71;100.00;101155.63;5051252;28;20040;-73
2022/12/28 05:01:59;;;;;;;9.40;3.75;;;;;;;6.69;100.00;101139.03;5050315;28;20036;-72
2022/12/28 05:04:25;;;;;;;5.32;3.08;;;;;;;6.80;100.00;101151.16;5033288;28;20067;-73
2022/12/28 05:06:50;;;;;;;7.70;4.03;;;;;;;6.82;100.00;101151.81;5033310;28;20036;-73
2022/12/28 05:09:18;;;;;;;7.10;3.50;;;;;;;6.85;100.00;101148.81;5050926;28;20048;-73
2022/12/28 05:11:43;;;;;;;9.35;3.70;;;;;;;6.84;100.00;101143.69;5050928;28;20029;-73
2022/12/28 05:14:08;;;;;;;7.47;3.80;;;;;;;6.90;100.00;101158.94;5049467;28;20037;-73
2022/12/28 05:16:34;;;;;;;8.23;3.53;;;;;;;6.90;100.00;101148.34;5048744;28;20025;-72
2022/12/28 05:18:59;;;;;;;7.15;3.30;;;;;;;6.90;100.00;101148.34;5033236;28;20655;-72
2022/12/28 05:21:26;;;;;;;7.28;3.22;;;;;;;6.93;100.00;101151.47;5032691;28;20029;-73
2022/12/28 05:23:52;;;;;;;8.20;3.03;;;;;;;6.94;100.00;101149.66;5041721;28;20040;-73
2022/12/28 05:26:24;;;;;;;8.27;3.15;;;;;;;6.93;100.00;101153.31;5032357;28;20024;-73
2022/12/28 05:28:50;;;;;;;5.15;3.25;;;;;;;6.93;100.00;101155.97;5050000;28;20029;-72
2022/12/28 05:31:18;;;;;;;6.60;4.28;;;;;;;6.91;100.00;101145.50;5032387;28;20036;-73
2022/12/28 05:33:44;;;;;;;7.28;3.00;;;;;;;6.95;100.00;101146.84;5031927;28;20406;-72
2022/12/28 05:36:15;;;;;;;5.95;3.20;;;;;;;6.94;100.00;101147.84;5049887;28;20033;-72
2022/12/28 05:38:41;;;;;;;5.20;2.55;;;;;;;6.93;100.00;101148.81;5049460;28;20028;-72
2022/12/28 05:41:18;;;;;;;4.00;2.45;;;;;;;6.95;100.00;101149.50;5031999;28;20036;-72
2022/12/28 05:43:44;;;;;;;5.55;2.80;;;;;;;6.99;100.00;101144.69;5028331;28;20029;-72
2022/12/28 05:46:12;;;;;;;3.72;2.70;;;;;;;6.99;100.00;101142.03;5049261;28;20052;-72
2022/12/28 05:48:39;;;;;;;6.72;3.67;;;;;;;6.99;100.00;101145.50;5033832;28;20303;-72
2022/12/28 05:51:07;;;;;;;6.65;2.90;;;;;;;6.97;100.00;101130.78;5031964;28;20384;-72
2022/12/28 05:53:33;;;;;;;7.65;3.17;;;;;;;6.97;100.00;101136.09;5050592;28;20542;-72
2022/12/28 05:56:04;;;;;;;5.60;3.20;;;;;;;6.99;100.00;101145.50;5050453;28;20036;-72
2022/12/28 05:58:30;;;;;;;4.80;2.90;;;;;;;6.95;100.00;101132.78;5050110;28;20460;-73
2022/12/28 06:01:10;;;;;;;7.15;3.55;;;;;;;7.00;100.00;101135.75;5050047;28;20096;-72
2022/12/28 06:03:37;;;;;;;7.55;2.53;;;;;;;7.01;100.00;101132.09;5049812;28;20028;-72
2022/12/28 06:06:04;;;;;;;4.70;3.20;;;;;;;7.01;100.00;101121.50;5048536;28;20029;-72
2022/12/28 06:08:30;;;;;;;5.80;2.83;;;;;;;7.02;100.00;101123.13;5049939;28;20029;-72
2022/12/28 06:11:02;;;;;;;4.63;3.22;;;;;;;7.02;100.00;101116.03;5049746;28;20032;-72
2022/12/28 06:13:28;;;;;;;3.85;2.85;;;;;;;7.01;100.00;101106.41;5045889;28;20025;-73
2022/12/28 06:15:53;;;;;;;7.03;3.42;;;;;;;7.05;100.00;101111.38;5032289;28;20488;-72
2022/12/28 06:18:18;;;;;;;6.57;2.78;;;;;;;7.05;100.00;101098.97;5032108;28;20043;-72
2022/12/28 06:20:44;;;;;;;10.00;3.88;;;;;;;7.05;100.00;101098.97;5049862;28;20029;-72
2022/12/28 06:23:09;;;;;;;3.92;2.83;;;;;;;7.07;100.00;101093.47;5031029;28;20037;-72
2022/12/28 06:25:36;;;;;;;5.13;2.80;;;;;;;7.08;100.00;101092.50;5030724;28;20127;-72
2022/12/28 06:28:02;;;;;;;3.60;2.45;;;;;;;7.13;100.00;101095.47;5048412;28;20163;-72
2022/12/28 06:30:27;;;;;;;5.70;2.83;;;;;;;7.10;100.00;101093.13;5034286;28;21006;-72
2022/12/28 06:32:55;;;;;;;5.78;2.17;;;;;;;7.08;100.00;101098.63;5030517;28;20041;-72
2022/12/28 06:35:20;;;;;;;3.55;2.25;;;;;;;7.10;100.00;101091.31;5048515;28;20090;-72
2022/12/28 06:37:46;;;;;;;5.50;2.78;;;;;;;7.13;100.00;101083.03;5047400;28;20040;-72
2022/12/28 06:40:12;;;;;;;3.17;2.53;;;;;;;7.18;100.00;101098.44;5048282;28;20029;-72
2022/12/28 06:42:37;;;;;;;4.78;2.75;;;;;;;7.11;100.00;101086.84;5048003;28;20377;-72
2022/12/28 06:45:03;;;;;;;5.45;2.65;;;;;;;7.15;100.00;101082.84;5048113;28;20036;-72
2022/12/28 06:47:28;;;;;;;3.85;2.40;;;;;;;7.20;100.00;101085.81;5046867;28;20037;-72
2022/12/28 06:49:54;;;;;;;5.88;2.30;;;;;;;7.19;100.00;101071.72;5061690;28;20509;-72
2022/12/28 06:52:20;;;;;;;6.53;2.50;;;;;;;7.21;100.00;101083.00;5031638;28;20028;-72
2022/12/28 06:54:45;;;;;;;7.78;3.22;;;;;;;7.27;100.00;101081.50;5049536;28;20360;-73
2022/12/28 06:57:10;;;;;;;3.30;2.40;;;;;;;7.27;100.00;101096.59;5049625;28;20032;-72
2022/12/28 06:59:36;;;;;;;4.07;2.83;;;;;;;7.27;100.00;101084.16;5049518;28;20070;-72
2022/12/28 07:02:01;;;;;;;7.10;3.03;;;;;;;7.25;100.00;101083.50;5049532;28;20075;-72
2022/12/28 07:04:26;;;;;;;3.47;2.55;;;;;;;7.29;100.00;101087.47;5031799;28;20059;-72
2022/12/28 07:06:52;;;;;;;3.78;2.22;;;;;;;7.31;100.00;101088.13;5049520;28;20036;-73
2022/12/28 07:09:17;;;;;;;4.28;2.90;;;;;;;7.30;100.00;101086.47;5049551;28;20029;-72
2022/12/28 07:11:43;;;;;;;5.13;2.80;;;;;;;7.33;100.00;101082.66;5049348;28;20476;-73
2022/12/28 07:14:09;;;;;;;6.45;3.03;;;;;;;7.35;100.00;101085.97;5049503;28;20079;-72
2022/12/28 07:16:34;;;;;;;5.28;3.03;;;;;;;7.38;100.00;101090.94;5049273;28;20052;-73
2022/12/28 07:19:00;;;;;;;4.88;2.97;;;;;;;7.39;100.00;101084.63;5031613;28;20029;-72
2022/12/28 07:21:31;;;;;;;2.97;2.22;;;;;;;7.37;100.00;101084.78;5049379;28;20446;-72
2022/12/28 07:23:57;;;;;;;6.05;2.80;;;;;;;7.43;100.00;101077.97;5031730;28;20043;-73
2022/12/28 07:26:31;;;;;;;7.72;2.75;;;;;;;7.44;100.00;101077.81;5034907;28;20025;-72
2022/12/28 07:28:59;;;;;;;3.78;2.53;;;;;;;7.48;100.00;101070.34;5053429;28;20104;-72
2022/12/28 07:31:28;;;;;;;6.65;3.00;;;;;;;7.44;100.00;101069.84;5053252;28;20036;-72
2022/12/28 07:33:55;;;;;;;5.00;2.30;;;;;;;7.47;100.00;101074.81;5052931;28;20468;-72
2022/12/28 07:36:22;;;;;;;4.57;2.20;;;;;;;7.47;100.00;101068.69;5053119;28;20032;-72
2022/12/28 07:38:48;;;;;;;5.90;2.50;;;;;;;7.45;100.00;101062.72;5028190;28;20032;-73
2022/12/28 07:41:19;;;;;;;2.60;2.13;;;;;;;7.51;100.00;101077.94;5072617;28;20395;-71
2022/12/28 07:43:45;;;;;;;5.40;2.78;;;;;;;7.51;100.00;101064.69;5072463;28;20051;-71
2022/12/28 07:46:18;;;;;;;5.50;2.75;;;;;;;7.50;100.00;101068.34;5072250;28;20530;-72
2022/12/28 07:48:44;;;;;;;4.18;2.30;;;;;;;7.49;100.00;101061.38;5071692;28;20487;-71
2022/12/28 07:51:13;;;;;;;5.05;2.55;;;;;;;7.57;100.00;101079.94;5072039;28;20078;-71
2022/12/28 07:53:39;;;;;;;4.30;2.20;;;;;;;7.56;100.00;101083.56;5071457;28;20035;-74
2022/12/28 07:56:06;;;;;;;6.70;2.58;;;;;;;7.55;100.00;101070.50;5054138;28;20032;-74
2022/12/28 07:58:32;;;;;;;4.55;2.33;;;;;;;7.61;100.00;101091.03;5035189;28;20033;-73
2022/12/28 08:01:09;;;;;;;3.08;2.30;;;;;;;7.60;100.00;101081.44;5064875;28;20033;-71
2022/12/28 08:03:35;;;;;;;4.70;2.78;;;;;;;7.63;100.00;101089.84;5053715;28;20574;-74
2022/12/28 08:06:03;;;;;;;4.28;2.45;;;;;;;7.64;100.00;101096.00;5054029;28;20154;-75
2022/12/28 08:08:29;;;;;;;3.70;2.63;;;;;;;7.62;100.00;101085.56;5072020;28;20495;-75
2022/12/28 08:10:55;;;;;;;3.80;2.45;;;;;;;7.63;100.00;101087.22;5054152;28;20082;-75
2022/12/28 08:13:20;;;;;;;3.85;2.28;;;;;;;7.66;100.00;101080.72;5071950;28;20024;-76
2022/12/28 08:15:55;;;;;;;4.90;2.10;;;;;;;7.68;100.00;101084.03;5071678;28;20040;-76
2022/12/28 08:18:20;;;;;;;4.00;3.08;;;;;;;7.69;100.00;101085.69;5053697;28;20443;-74
2022/12/28 08:20:45;;;;;;;5.82;2.88;;;;;;;7.68;100.00;101079.56;5053359;28;20077;-75
2022/12/28 08:23:11;;;;;;;5.82;2.67;;;;;;;7.69;100.00;101070.59;5063316;28;20025;-74
2022/12/28 08:25:36;;;;;;;3.15;2.03;;;;;;;7.71;100.00;101080.22;5051927;28;20056;-75
2022/12/28 08:28:01;;;;;;;5.65;3.15;;;;;;;7.69;100.00;101073.25;5049848;28;20047;-75
2022/12/28 08:30:27;;;;;;;6.47;2.47;;;;;;;7.71;100.00;101070.44;5068163;28;20056;-75
2022/12/28 08:32:52;;;;;;;5.50;2.60;;;;;;;7.68;100.00;101058.31;5071364;28;20040;-76
2022/12/28 08:35:17;;;;;;;4.72;3.08;;;;;;;7.71;100.00;101072.25;5071133;28;20073;-75
2022/12/28 08:37:42;;;;;;;7.50;2.33;;;;;;;7.68;100.00;101060.16;5069972;28;20130;-76
2022/12/28 08:40:09;;;;;;;3.55;2.60;;;;;;;7.72;100.00;101069.41;5053036;28;20043;-75
2022/12/28 08:42:34;;;;;;;6.65;3.15;;;;;;;7.73;100.00;101068.44;5051247;28;20041;-76
2022/12/28 08:44:59;;;;;;;5.18;2.45;;;;;;;7.73;100.00;101065.78;5053214;28;20143;-76
2022/12/28 08:47:25;;;;;;;7.10;2.60;;;;;;;7.76;100.00;101073.38;5071038;28;20043;-76
2022/12/28 08:49:50;;;;;;;7.70;3.50;;;;;;;7.79;100.00;101072.22;5052900;28;20076;-76
2022/12/28 08:52:15;;;;;;;4.30;2.88;;;;;;;7.81;100.00;101070.22;5070445;28;20028;-74
2022/12/28 08:54:41;;;;;;;5.60;2.63;;;;;;;7.84;100.00;101061.91;5067196;28;20494;-76
2022/12/28 08:57:06;;;;;;;4.07;2.92;;;;;;;7.83;100.00;101066.41;5051330;28;20033;-77
2022/12/28 08:59:31;;;;;;;5.93;2.97;;;;;;;7.84;100.00;101064.56;5051227;28;20025;-79
2022/12/28 09:01:57;;;;;;;6.20;3.17;;;;;;;7.87;100.00;101062.38;5063497;28;20384;-73
2022/12/28 09:04:22;;;;;;;5.60;2.30;;;;;;;7.81;100.00;101051.63;5059669;28;20094;-74
2022/12/28 09:06:48;;;;;;;6.63;3.50;;;;;;;7.85;100.00;101063.53;5033652;28;20044;-74
2022/12/28 09:09:16;;;;;;;5.03;3.00;;;;;;;7.88;100.00;101060.53;5051133;28;20025;-74
2022/12/28 09:11:42;;;;;;;7.60;3.08;;;;;;;7.89;100.00;101070.19;5051059;28;20032;-75
2022/12/28 09:14:09;;;;;;;5.78;3.08;;;;;;;7.90;100.00;101066.50;5051147;28;20029;-74
2022/12/28 09:16:36;;;;;;;5.60;3.10;;;;;;;7.90;100.00;101072.66;5050997;28;20036;-74
2022/12/28 09:19:03;;;;;;;5.07;2.50;;;;;;;7.85;100.00;101067.03;5033259;28;20527;-74
2022/12/28 09:21:32;;;;;;;5.13;2.80;;;;;;;7.88;100.00;101069.31;5050965;28;20547;-78
2022/12/28 09:23:57;;;;;;;5.35;3.08;;;;;;;7.89;100.00;101073.66;5038971;28;20490;-74
2022/12/28 09:26:25;;;;;;;4.43;2.75;;;;;;;7.88;100.00;101066.66;5050764;28;20041;-72
2022/12/28 09:28:54;;;;;;;4.43;3.13;;;;;;;7.91;100.00;101068.16;5062074;28;20071;-75
2022/12/28 09:31:22;;;;;;;6.80;2.90;;;;;;;7.90;100.00;101070.00;5070230;28;20043;-75
2022/12/28 09:34:00;;;;;;;4.57;2.70;;;;;;;7.93;100.00;101057.38;5070195;28;20044;-75
2022/12/28 09:36:35;;;;;;;9.73;2.92;;;;;;;7.98;100.00;101068.31;5052018;28;20426;-75
2022/12/28 09:39:05;;;;;;;4.05;2.78;;;;;;;8.00;100.00;101067.13;5070300;28;20372;-75
2022/12/28 09:41:39;;;;;;;3.72;2.22;;;;;;;7.99;100.00;101062.81;5070057;28;20487;-75
2022/12/28 09:44:30;;;;;;;3.38;1.83;;;;;;;8.05;100.00;101070.09;5069975;28;20029;-76
2022/12/28 09:47:07;;;;;;;6.82;2.40;;;;;;;8.05;100.00;101058.63;5069774;28;20051;-75
2022/12/28 09:49:57;;;;;;;6.72;2.42;;;;;;;8.08;100.00;101064.41;5069053;28;20109;-75
2022/12/28 09:52:33;;;;;;;3.58;2.28;;;;;;;8.08;100.00;101059.09;5068666;28;20479;-73
2022/12/28 09:55:19;;;;;;;5.00;2.55;;;;;;;8.12;100.00;101056.91;5050395;28;20071;-74
2022/12/28 09:57:48;;;;;;;4.13;2.83;;;;;;;8.11;100.00;101060.59;5049829;28;20552;-74
2022/12/28 10:00:17;;;;;;;4.25;2.15;;;;;;;8.11;100.00;101061.41;5050028;28;20419;-74
2022/12/28 10:02:50;;;;;;;2.85;2.10;;;;;;;8.14;100.00;101057.56;5050103;28;20904;-74
2022/12/28 10:05:16;;;;;;;4.70;2.55;;;;;;;8.15;100.00;101058.41;5050119;28;20036;-74
2022/12/28 10:07:42;;;;;;;3.45;2.20;;;;;;;8.18;100.00;101058.88;5049957;28;20033;-74
2022/12/28 10:10:15;;;;;;;3.03;2.05;;;;;;;8.20;100.00;101046.25;5049609;28;20057;-74
2022/12/28 10:12:42;;;;;;;3.67;2.72;;;;;;;8.17;100.00;101051.09;5049552;28;20353;-75
2022/12/28 10:15:12;;;;;;;4.25;2.40;;;;;;;8.18;100.00;101048.25;5049776;28;20458;-75
2022/12/28 10:17:38;;;;;;;3.22;2.10;;;;;;;8.20;100.00;101054.25;5065437;28;20039;-75
2022/12/28 10:20:06;;;;;;;3.40;2.20;;;;;;;8.16;100.00;101058.22;5049341;28;20032;-75
2022/12/28 10:22:37;;;;;;;3.22;1.85;;;;;;;8.19;100.00;101052.56;5067507;28;20039;-74
2022/12/28 10:25:12;;;;;;;4.32;2.65;;;;;;;8.17;100.00;101061.72;5047739;28;20031;-74
2022/12/28 10:27:37;;;;;;;4.35;2.10;;;;;;;8.13;100.00;101043.47;5047682;28;20494;-74
2022/12/28 10:30:15;;;;;;;2.92;2.28;;;;;;;8.15;100.00;101048.63;5047546;28;20025;-74
2022/12/28 10:32:55;;;;;;;2.78;2.30;;;;;;;8.15;100.00;101047.78;5048990;28;20085;-74
2022/12/28 10:35:45;;;;;;;3.58;2.05;;;;;;;8.12;100.00;101040.97;5031724;28;20468;-74
2022/12/28 10:38:24;;;;;;;2.72;2.03;;;;;;;8.15;100.00;101039.81;5038234;28;20178;-75
2022/12/28 10:41:11;;;;;;;3.20;2.25;;;;;;;8.09;100.00;101030.72;5049222;28;20387;-74
2022/12/28 10:43:39;;;;;;;4.40;2.33;;;;;;;8.12;100.00;101033.00;5049739;28;20040;-75
2022/12/28 10:46:16;;;;;;;4.70;2.75;;;;;;;8.11;100.00;101023.41;5049213;28;20020;-74
2022/12/28 10:48:54;;;;;;;3.63;2.33;;;;;;;8.10;100.00;101021.75;5031584;28;20460;-75
2022/12/28 10:51:28;;;;;;;4.38;2.97;;;;;;;8.14;100.00;101031.00;5048994;28;20384;-74
2022/12/28 10:53:56;;;;;;;6.18;3.25;;;;;;;8.13;100.00;101026.72;5031406;28;20139;-74
2022/12/28 10:56:21;;;;;;;3.63;2.35;;;;;;;8.17;100.00;101021.84;5031583;28;20033;-75
2022/12/28 10:58:51;;;;;;;4.70;2.60;;;;;;;8.19;100.00;101015.38;5049053;28;20553;-75
2022/12/28 11:01:24;;;;;;;4.90;2.10;;;;;;;8.21;100.00;101016.03;5048604;28;20109;-75
2022/12/28 11:03:55;;;;;;;3.63;2.28;;;;;;;8.21;100.00;101021.34;5049359;28;20149;-75
2022/12/28 11:06:26;;;;;;;4.03;2.83;;;;;;;8.14;100.00;100999.13;5046062;28;20043;-75
2022/12/28 11:09:00;;;;;;;3.70;2.30;;;;;;;8.23;100.00;101003.41;5043203;28;20035;-75
2022/12/28 11:11:27;;;;;;;4.47;2.40;;;;;;;8.17;100.00;100998.78;5042594;28;20021;-75
2022/12/28 11:14:05;;;;;;;4.82;2.90;;;;;;;8.20;100.00;101002.91;5024843;28;20479;-75
2022/12/28 11:16:35;;;;;;;4.13;2.45;;;;;;;8.12;100.00;100996.66;5043496;28;20388;-76
2022/12/28 11:19:01;;;;;;;5.00;2.90;;;;;;;8.20;100.00;101002.91;5025432;28;20029;-75
2022/12/28 11:21:26;;;;;;;6.38;2.75;;;;;;;8.15;100.00;100990.19;5043447;28;20035;-75
2022/12/28 11:23:52;;;;;;;4.32;2.70;;;;;;;8.16;100.00;100991.81;5042820;28;20072;-75
2022/12/28 11:26:19;;;;;;;7.25;2.70;;;;;;;8.20;100.00;100998.44;5025382;28;20025;-75
2022/12/28 11:28:47;;;;;;;5.30;2.67;;;;;;;8.22;100.00;100982.31;5043392;28;20021;-75
2022/12/28 11:31:22;;;;;;;5.47;3.20;;;;;;;8.21;100.00;100970.03;5043532;28;20460;-83
2022/12/28 11:33:51;;;;;;;5.30;2.95;;;;;;;8.25;100.00;100974.81;5044466;28;20041;-83
2022/12/28 11:36:21;;;;;;;6.47;2.58;;;;;;;8.22;100.00;100984.97;5043537;28;20646;-83
2022/12/28 11:38:49;;;;;;;6.40;2.85;;;;;;;8.24;100.00;100975.00;5045255;28;20020;-83
2022/12/28 11:41:23;;;;;;;5.18;2.67;;;;;;;8.29;100.00;100976.09;5046171;28;20044;-82
2022/12/28 11:44:41;;;;;;;3.80;2.60;;;;;;;8.33;100.00;100965.94;5045693;28;20036;-81
2022/12/28 11:47:15;;;;;;;4.15;2.45;;;;;;;8.34;100.00;100967.59;5032414;28;20491;-85
2022/12/28 11:49:43;;;;;;;7.20;2.47;;;;;;;8.33;100.00;100966.78;5045774;28;20045;-83
2022/12/28 11:52:19;;;;;;;2.88;2.30;;;;;;;8.34;100.00;100963.09;5045152;28;20434;-83
2022/12/28 11:54:55;;;;;;;4.28;2.55;;;;;;;8.35;100.00;100961.28;5045304;28;20095;-83
2022/12/28 11:57:42;;;;;;;4.38;2.05;;;;;;;8.35;100.00;100953.28;5044398;28;20033;-82
2022/12/28 12:00:17;;;;;;;10.30;2.63;;;;;;;8.34;100.00;100956.97;5045008;28;20071;-82
2022/12/28 12:02:52;;;;;;;7.07;2.58;;;;;;;8.33;100.00;100953.50;5044899;28;20052;-82